Agar, South Dakota
Current Conditions -  °F | °C
As of 9:53 AM on Sunday 23 Nov 2014 (Local Time) from KPIR Reporting Station
Clear Clear  
Wind Chill: 30°   Ceiling: Unl
Heat Index: 39°   Visibility: 10mi
Dew Point: 30°   Wind: 16mph
Humidity: 70%   Direction: 280°W
Pressure: 29.62"   Gusts: NA
Location:  44.84°N, 100.07°W
Report Text: KPIR 231553Z AUTO 28014KT 10SM CLR 04/M01 A2962 RMK AO2 SLP040 T00391011
Loading
Personal Weather Stations






























Interactive Weather Map New forecast layout! Learn more

10-Day Weather Forecast

Advertisements
Track Severe Weather on mobile